NCAR-RAP Real-Time Weather Data

Output produced by METARs form (28 February 2017  16:44 UTC)
found at http://weather.rap.ucar.edu/surface/
 
Conditions at: K4O4 observed 28 February 2017  16:35 UTC
Temperature: 20.0°C (68°F)
Dewpoint: 18.0°C (64°F) [RH = 88%]
Pressure (altimeter): 29.94 inches Hg (1014.0 mb)
Winds: from the SSW (200 degrees) at 10 MPH (9 knots; 4.7 m/s)
gusting to 20 MPH (17 knots; 8.8 m/s)
Visibility: 5 miles (8 km)
Ceiling: 1300 feet AGL
Clouds: scattered clouds at 900 feet AGL
broken clouds at 1300 feet AGL
broken clouds at 2000 feet AGL
Present Weather: automated observation with no human augmentation;
there may or may not be significant weather present at this time
K4O4 281635Z AUTO 20009G17KT 5SM SCT009 BKN013 BKN020 20/18 A2994 RMK AO2